Hartland Point — ZIQS6 — position and weather

sailwx.info

Track history (hours):
 
Tides and Currents Weather Stations Pressure Air Temp Water Temp Dewpoint Dewpoint Depression Visibility Wind Speed Wind Dir Waves Ship Positions

Hartland Point

Last reported at 2017-Jan-19 01:07 UTC. Time now 2017-Jan-21 02:13 UTC.
Position N 34°30' E 032°42'.

Length 193 m; draft 5.7 m.

Type: Ship. MMSI: 235505000.

Date/timePositionNaut miles runAvg speedWind from/ knotsBaromVisibWave heightAir tempDewpointWater temp
2017-Jan-19 01:07N 34°30' E 032°42'915.8
2017-Jan-19 00:33N 34°30' E 032°52'1212.1
2017-Jan-18 23:33N 34°36' E 033°05'4 4.3
2017-Jan-18 22:31N 34°39' E 033°01'0 0.0
2017-Jan-18 21:31N 34°39' E 033°01'0 0.0
2017-Jan-18 20:31N 34°39' E 033°01'0 0.0
2017-Jan-18 19:33N 34°39' E 033°01'0 0.0
2017-Jan-18 18:33N 34°39' E 033°01'0 0.0
2017-Jan-18 17:32N 34°39' E 033°01'0 0.0
2017-Jan-18 16:32N 34°39' E 033°01'0 0.0
2017-Jan-18 15:31N 34°39' E 033°01'0 0.0
2017-Jan-18 14:31N 34°39' E 033°01'1 1.6
2017-Jan-18 13:33N 34°39' E 033°03'5 4.5
2017-Jan-18 12:34N 34°35' E 033°05'1211.8
2017-Jan-18 11:34N 34°30' E 032°53'1413.7
2017-Jan-18 10:33N 34°30' E 032°36'74714.6
2017-Jan-16 07:33N 35°53' E 017°28'1615.6
2017-Jan-16 06:33N 35°57' E 017°09'11815.8
2017-Jan-15 23:04N 36°23' E 014°47'815.5
2017-Jan-15 22:33N 36°25' E 014°37'1615.8
2017-Jan-15 21:33N 36°29' E 014°18'1615.6
2017-Jan-15 20:33N 36°33' E 013°59'1515.5
2017-Jan-15 19:33N 36°37' E 013°41'78215.5
2017-Jan-13 17:13N 36°18' W 002°31'1116.3
2017-Jan-13 16:31N 36°17' W 002°45'126 5.5
2017-Jan-12 17:31N 36°08' W 005°22'0 0.0
2017-Jan-12 16:31N 36°08' W 005°22'0 0.0
2017-Jan-12 15:25N 36°08' W 005°22'0 0.0
2017-Jan-12 14:30N 36°08' W 005°22'0 0.0
2017-Jan-12 13:24N 36°08' W 005°22'0 0.0
2017-Jan-12 12:23N 36°08' W 005°22'0 0.0
2017-Jan-12 11:11N 36°08' W 005°22'0 0.0
2017-Jan-12 10:28N 36°08' W 005°22'0 0.0
2017-Jan-12 08:15N 36°08' W 005°22'0 0.0
2017-Jan-12 07:33N 36°08' W 005°22'5 4.6
2017-Jan-12 06:33N 36°03' W 005°22'1413.2
2017-Jan-12 05:28N 35°54' W 005°36'1817.5
2017-Jan-12 04:28N 35°54' W 005°58'23313.0
2017-Jan-11 10:29N 38°07' W 009°57'1415.0
2017-Jan-11 09:33N 38°21' W 010°01'1514.8
2017-Jan-11 08:33N 38°35' W 010°06'1414.5
2017-Jan-11 07:33N 38°49' W 010°08'1514.7
2017-Jan-11 06:33N 39°04' W 010°07'1515.5
2017-Jan-11 05:33N 39°20' W 010°05'61715.0
2017-Jan-09 12:20N 49°02' W 005°21'6714.1
2017-Jan-09 07:33N 49°37' W 003°54'1515.1
2017-Jan-09 06:33N 49°45' W 003°33'5914.2
2017-Jan-09 02:25N 50°11' W 002°11'1314.9
2017-Jan-09 01:34N 50°16' W 001°53'  
Track history (hours):
 
Tides and Currents Weather Stations Pressure Air Temp Water Temp Dewpoint Dewpoint Depression Visibility Wind Speed Wind Dir Waves Ship Positions

Hartland Point

Last reported at 2017-Jan-19 01:07 UTC. Time now 2017-Jan-21 02:13 UTC.
Position N 34°30' E 032°42'.

Length 193 m; draft 5.7 m.

Type: Ship. MMSI: 235505000.

Date/timePositionNaut miles runAvg speedWind from/ knotsBaromVisibWave heightAir tempDewpointWater temp
2017-Jan-19 01:07N 34°30' E 032°42'915.8
2017-Jan-19 00:33N 34°30' E 032°52'1212.1
2017-Jan-18 23:33N 34°36' E 033°05'4 4.3
2017-Jan-18 22:31N 34°39' E 033°01'0 0.0
2017-Jan-18 21:31N 34°39' E 033°01'0 0.0
2017-Jan-18 20:31N 34°39' E 033°01'0 0.0
2017-Jan-18 19:33N 34°39' E 033°01'0 0.0
2017-Jan-18 18:33N 34°39' E 033°01'0 0.0
2017-Jan-18 17:32N 34°39' E 033°01'0 0.0
2017-Jan-18 16:32N 34°39' E 033°01'0 0.0
2017-Jan-18 15:31N 34°39' E 033°01'0 0.0
2017-Jan-18 14:31N 34°39' E 033°01'1 1.6
2017-Jan-18 13:33N 34°39' E 033°03'5 4.5
2017-Jan-18 12:34N 34°35' E 033°05'1211.8
2017-Jan-18 11:34N 34°30' E 032°53'1413.7
2017-Jan-18 10:33N 34°30' E 032°36'74714.6
2017-Jan-16 07:33N 35°53' E 017°28'1615.6
2017-Jan-16 06:33N 35°57' E 017°09'11815.8
2017-Jan-15 23:04N 36°23' E 014°47'815.5
2017-Jan-15 22:33N 36°25' E 014°37'1615.8
2017-Jan-15 21:33N 36°29' E 014°18'1615.6
2017-Jan-15 20:33N 36°33' E 013°59'1515.5
2017-Jan-15 19:33N 36°37' E 013°41'78215.5
2017-Jan-13 17:13N 36°18' W 002°31'1116.3
2017-Jan-13 16:31N 36°17' W 002°45'126 5.5
2017-Jan-12 17:31N 36°08' W 005°22'0 0.0
2017-Jan-12 16:31N 36°08' W 005°22'0 0.0
2017-Jan-12 15:25N 36°08' W 005°22'0 0.0
2017-Jan-12 14:30N 36°08' W 005°22'0 0.0
2017-Jan-12 13:24N 36°08' W 005°22'0 0.0
2017-Jan-12 12:23N 36°08' W 005°22'0 0.0
2017-Jan-12 11:11N 36°08' W 005°22'0 0.0
2017-Jan-12 10:28N 36°08' W 005°22'0 0.0
2017-Jan-12 08:15N 36°08' W 005°22'0 0.0
2017-Jan-12 07:33N 36°08' W 005°22'5 4.6
2017-Jan-12 06:33N 36°03' W 005°22'1413.2
2017-Jan-12 05:28N 35°54' W 005°36'1817.5
2017-Jan-12 04:28N 35°54' W 005°58'23313.0
2017-Jan-11 10:29N 38°07' W 009°57'1415.0
2017-Jan-11 09:33N 38°21' W 010°01'1514.8
2017-Jan-11 08:33N 38°35' W 010°06'1414.5
2017-Jan-11 07:33N 38°49' W 010°08'1514.7
2017-Jan-11 06:33N 39°04' W 010°07'1515.5
2017-Jan-11 05:33N 39°20' W 010°05'61715.0
2017-Jan-09 12:20N 49°02' W 005°21'6714.1
2017-Jan-09 07:33N 49°37' W 003°54'1515.1
2017-Jan-09 06:33N 49°45' W 003°33'5914.2
2017-Jan-09 02:25N 50°11' W 002°11'1314.9
2017-Jan-09 01:34N 50°16' W 001°53'  

Dump ship's entire track history